createdAt,value
2023-04-22T00:02:23.511Z,63.68
2023-04-22T00:04:50.275Z,63.47
2023-04-22T00:07:17.146Z,63.30
2023-04-22T00:09:43.534Z,63.60
2023-04-22T00:12:10.230Z,63.59
2023-04-22T00:14:36.520Z,63.71
2023-04-22T00:17:03.158Z,64.02
2023-04-22T00:19:29.451Z,64.05
2023-04-22T00:21:55.805Z,64.18
2023-04-22T00:24:22.089Z,63.73
2023-04-22T00:26:48.387Z,63.97
2023-04-22T00:29:15.044Z,64.86
2023-04-22T00:31:41.406Z,65.17
2023-04-22T00:34:07.717Z,64.66
2023-04-22T00:36:34.105Z,64.93
2023-04-22T00:39:01.058Z,65.05
2023-04-22T00:41:27.877Z,65.37
2023-04-22T00:43:54.689Z,64.78
2023-04-22T00:46:21.087Z,65.73
2023-04-22T00:48:47.475Z,65.75
2023-04-22T00:51:13.751Z,65.29
2023-04-22T00:53:40.024Z,66.04
2023-04-22T00:56:07.337Z,64.88
2023-04-22T00:58:33.745Z,65.49
2023-04-22T01:01:00.164Z,65.78
2023-04-22T01:03:27.721Z,66.26
2023-04-22T01:05:53.975Z,68.71
2023-04-22T01:08:20.277Z,66.39
2023-04-22T01:10:46.740Z,66.12
2023-04-22T01:13:13.053Z,65.90
2023-04-22T01:15:39.367Z,66.58
2023-04-22T01:18:06.329Z,66.11
2023-04-22T01:20:32.822Z,66.91
2023-04-22T01:23:02.935Z,67.25
2023-04-22T01:25:29.553Z,66.10
2023-04-22T01:27:56.825Z,67.05
2023-04-22T01:30:23.143Z,66.54
2023-04-22T01:32:50.252Z,66.24
2023-04-22T01:35:16.588Z,66.37
2023-04-22T01:37:42.930Z,66.31
2023-04-22T01:40:09.958Z,66.41
2023-04-22T01:42:36.528Z,66.94
2023-04-22T01:45:03.923Z,66.32
2023-04-22T01:47:30.325Z,67.07
2023-04-22T01:49:56.662Z,67.12
2023-04-22T01:52:22.997Z,67.49
2023-04-22T01:54:49.946Z,67.08
2023-04-22T01:57:16.279Z,67.36
2023-04-22T01:59:42.815Z,66.77
2023-04-22T02:02:09.317Z,67.36
2023-04-22T02:04:35.852Z,67.90
2023-04-22T02:07:02.188Z,67.79
2023-04-22T02:09:28.500Z,67.82
2023-04-22T02:11:54.813Z,67.38
2023-04-22T02:14:21.077Z,66.98
2023-04-22T02:16:47.394Z,67.40
2023-04-22T02:19:13.772Z,67.80
2023-04-22T02:21:40.209Z,68.05
2023-04-22T02:24:06.603Z,67.44
2023-04-22T02:26:32.938Z,67.42
2023-04-22T02:28:59.215Z,67.27
2023-04-22T02:31:25.605Z,68.56
2023-04-22T02:33:51.924Z,67.61
2023-04-22T02:36:18.257Z,67.74
2023-04-22T02:38:44.535Z,67.58
2023-04-22T02:41:10.967Z,68.40
2023-04-22T02:43:37.273Z,67.97
2023-04-22T02:46:03.572Z,68.37
2023-04-22T02:48:29.988Z,68.06
2023-04-22T02:50:56.276Z,68.00
2023-04-22T02:53:22.572Z,68.08
2023-04-22T02:55:48.873Z,67.60
2023-04-22T02:58:15.168Z,68.65
2023-04-22T03:00:41.458Z,69.09
2023-04-22T03:03:07.986Z,68.88
2023-04-22T03:05:34.359Z,69.15
2023-04-22T03:08:00.640Z,68.48
2023-04-22T03:10:26.990Z,68.93
2023-04-22T03:12:53.488Z,68.26
2023-04-22T03:15:21.558Z,68.09
2023-04-22T03:17:48.217Z,68.13
2023-04-22T03:20:14.670Z,68.55
2023-04-22T03:22:41.061Z,68.69
2023-04-22T03:25:07.669Z,68.93
2023-04-22T03:27:33.944Z,68.53
2023-04-22T03:30:00.324Z,68.44
2023-04-22T03:32:26.613Z,68.52
2023-04-22T03:34:52.986Z,68.49
2023-04-22T03:37:19.282Z,69.23
2023-04-22T03:39:45.553Z,68.65
2023-04-22T03:42:14.418Z,68.92
2023-04-22T03:44:40.864Z,68.97
2023-04-22T03:47:07.264Z,68.96
2023-04-22T03:49:34.005Z,69.32
2023-04-22T03:52:00.288Z,68.98
2023-04-22T03:54:26.906Z,69.09
2023-04-22T03:56:53.293Z,69.01
2023-04-22T03:59:19.600Z,69.04
2023-04-22T04:01:46.809Z,68.87
2023-04-22T04:04:13.491Z,69.57
2023-04-22T04:06:39.989Z,69.25
2023-04-22T04:09:06.336Z,69.39
2023-04-22T04:11:32.679Z,69.54
2023-04-22T04:13:59.020Z,69.44
2023-04-22T04:16:25.365Z,69.79
2023-04-22T04:18:52.459Z,70.57
2023-04-22T04:21:18.831Z,70.06
2023-04-22T04:23:46.945Z,70.12
2023-04-22T04:26:13.327Z,69.47
2023-04-22T04:28:39.740Z,69.48
2023-04-22T04:31:06.060Z,69.59
2023-04-22T04:33:32.466Z,69.70
2023-04-22T04:35:59.699Z,69.58
2023-04-22T04:38:26.674Z,69.61
2023-04-22T04:40:53.145Z,69.79
2023-04-22T04:43:19.712Z,69.93
2023-04-22T04:45:47.948Z,69.16
2023-04-22T04:48:15.355Z,69.72
2023-04-22T04:50:42.437Z,69.09
2023-04-22T04:53:09.834Z,69.61
2023-04-22T04:55:36.534Z,69.63
2023-04-22T04:58:03.058Z,69.22
2023-04-22T05:00:29.946Z,69.41
2023-04-22T05:02:56.381Z,69.88
2023-04-22T05:05:22.717Z,69.72
2023-04-22T05:07:49.137Z,69.14
2023-04-22T05:10:15.410Z,70.14
2023-04-22T05:12:41.709Z,69.59
2023-04-22T05:15:08.343Z,69.66
2023-04-22T05:17:34.645Z,69.20
2023-04-22T05:20:01.064Z,68.90
2023-04-22T05:22:27.328Z,69.24
2023-04-22T05:24:53.708Z,69.03
2023-04-22T05:27:20.125Z,69.01
2023-04-22T05:29:46.418Z,68.16
2023-04-22T05:32:12.803Z,68.44
2023-04-22T05:34:39.124Z,68.27
2023-04-22T05:37:05.411Z,67.91
2023-04-22T05:39:31.692Z,67.50
2023-04-22T05:41:57.971Z,67.89
2023-04-22T05:44:24.338Z,67.50
2023-04-22T05:46:50.651Z,67.24
2023-04-22T05:49:16.964Z,67.93
2023-04-22T05:51:43.255Z,67.28
2023-04-22T05:54:09.658Z,66.61
2023-04-22T05:56:36.040Z,66.25
2023-04-22T05:59:02.320Z,66.52
2023-04-22T06:01:28.717Z,66.56
2023-04-22T06:03:55.074Z,66.61
2023-04-22T06:06:21.566Z,65.89
2023-04-22T06:08:48.718Z,65.81
2023-04-22T06:11:15.088Z,65.14
2023-04-22T06:13:41.375Z,62.76
2023-04-22T06:18:39.824Z,62.54
2023-04-22T06:21:06.199Z,61.82
2023-04-22T06:23:32.463Z,61.15
2023-04-22T06:25:58.884Z,61.09
2023-04-22T06:28:25.203Z,58.55
2023-04-22T06:30:51.502Z,57.15
2023-04-22T06:33:17.840Z,58.33
2023-04-22T06:35:44.642Z,56.24
2023-04-22T06:38:11.282Z,55.73
2023-04-22T06:40:37.701Z,56.16
2023-04-22T06:43:04.039Z,56.35
2023-04-22T06:45:30.353Z,56.03
2023-04-22T06:47:56.775Z,54.81
2023-04-22T06:50:23.071Z,54.25
2023-04-22T06:52:49.482Z,55.53
2023-04-22T06:55:15.920Z,54.75
2023-04-22T06:57:42.202Z,53.09
2023-04-22T07:00:08.824Z,53.98
2023-04-22T07:02:35.336Z,51.73
2023-04-22T07:05:02.029Z,53.54
2023-04-22T07:07:28.381Z,51.99
2023-04-22T07:09:54.660Z,53.39
2023-04-22T07:12:21.032Z,52.92
2023-04-22T07:14:49.320Z,50.62
2023-04-22T07:17:15.713Z,51.81
2023-04-22T07:19:42.254Z,49.39
2023-04-22T07:22:08.629Z,51.59
2023-04-22T07:24:35.042Z,50.46
2023-04-22T07:27:01.544Z,50.18
2023-04-22T07:29:28.003Z,51.13
2023-04-22T07:31:54.352Z,51.27
2023-04-22T07:34:20.719Z,50.63
2023-04-22T07:36:47.200Z,49.86
2023-04-22T07:39:13.518Z,48.21
2023-04-22T07:41:39.804Z,49.80
2023-04-22T07:44:06.085Z,49.42
2023-04-22T07:46:32.455Z,49.49
2023-04-22T07:48:58.751Z,47.70
2023-04-22T07:51:25.146Z,47.85
2023-04-22T07:53:51.535Z,49.33
2023-04-22T07:56:17.830Z,49.61
2023-04-22T07:58:44.109Z,47.24
2023-04-22T08:01:10.569Z,47.67
2023-04-22T08:03:37.176Z,48.36
2023-04-22T08:06:03.875Z,48.00
2023-04-22T08:08:30.193Z,46.72
2023-04-22T08:10:56.729Z,48.35
2023-04-22T08:13:23.042Z,48.48
2023-04-22T08:15:49.382Z,47.73
2023-04-22T08:18:15.823Z,46.98
2023-04-22T08:20:42.081Z,47.01
2023-04-22T08:23:08.401Z,46.55
2023-04-22T08:25:35.098Z,47.29
2023-04-22T08:28:01.447Z,45.53
2023-04-22T08:30:27.815Z,45.70
2023-04-22T08:32:54.144Z,45.62
2023-04-22T08:35:20.508Z,45.56
2023-04-22T08:37:46.866Z,45.90
2023-04-22T08:40:13.189Z,45.20
2023-04-22T08:42:40.052Z,45.49
2023-04-22T08:45:06.711Z,46.48
2023-04-22T08:47:34.725Z,45.81
2023-04-22T08:50:03.278Z,45.39
2023-04-22T08:52:32.890Z,43.90
2023-04-22T08:54:59.736Z,43.50
2023-04-22T08:57:26.861Z,43.26
2023-04-22T08:59:53.367Z,43.12
2023-04-22T09:02:21.226Z,43.24
2023-04-22T09:04:49.908Z,42.40
2023-04-22T09:07:24.347Z,42.33
2023-04-22T09:09:51.057Z,43.54
2023-04-22T09:12:17.336Z,41.95
2023-04-22T09:14:44.300Z,40.73
2023-04-22T09:17:10.699Z,41.63
2023-04-22T09:19:37.346Z,42.01
2023-04-22T09:22:04.536Z,41.04
2023-04-22T09:24:30.991Z,42.14
2023-04-22T09:26:57.342Z,41.06
2023-04-22T09:29:30.154Z,40.22
2023-04-22T09:31:56.536Z,41.40
2023-04-22T09:34:23.937Z,40.91
2023-04-22T09:36:51.005Z,40.33
2023-04-22T09:39:17.229Z,39.16
2023-04-22T09:41:43.558Z,40.67
2023-04-22T09:44:17.299Z,38.98
2023-04-22T09:46:44.595Z,39.83
2023-04-22T09:49:11.609Z,39.72
2023-04-22T09:51:41.169Z,39.17
2023-04-22T09:54:08.358Z,39.00
2023-04-22T09:56:45.647Z,37.71
2023-04-22T09:59:12.102Z,38.34
2023-04-22T10:01:39.720Z,38.05
2023-04-22T10:04:07.165Z,37.81
2023-04-22T10:06:33.531Z,37.77
2023-04-22T10:08:59.821Z,37.01
2023-04-22T10:11:26.267Z,37.25
2023-04-22T10:13:52.634Z,37.61
2023-04-22T10:16:21.325Z,36.81
2023-04-22T10:18:48.887Z,37.20
2023-04-22T10:21:18.450Z,36.85
2023-04-22T10:23:48.412Z,35.04
2023-04-22T10:26:40.628Z,35.62
2023-04-22T10:29:08.305Z,35.79
2023-04-22T10:31:37.241Z,36.36
2023-04-22T10:34:11.427Z,35.37
2023-04-22T10:37:06.725Z,34.69
2023-04-22T10:39:33.497Z,36.39
2023-04-22T10:42:02.575Z,35.25
2023-04-22T10:44:44.541Z,34.94
2023-04-22T10:47:10.938Z,35.93
2023-04-22T10:49:37.473Z,33.95
2023-04-22T10:52:06.268Z,33.77
2023-04-22T10:54:32.751Z,34.34
2023-04-22T10:57:07.293Z,34.59
2023-04-22T10:59:52.994Z,33.66
2023-04-22T11:02:21.201Z,33.46
2023-04-22T11:04:48.347Z,33.35
2023-04-22T11:07:14.598Z,33.72
2023-04-22T11:09:43.192Z,33.85
2023-04-22T11:12:37.370Z,33.10
2023-04-22T11:15:15.191Z,32.39
2023-04-22T11:17:50.340Z,33.12
2023-04-22T11:20:17.144Z,32.48
2023-04-22T11:22:46.134Z,33.13
2023-04-22T11:25:13.190Z,33.30
2023-04-22T11:27:40.815Z,33.02
2023-04-22T11:30:09.026Z,33.36
2023-04-22T11:32:41.457Z,32.84
2023-04-22T11:35:10.527Z,32.63
2023-04-22T11:37:55.134Z,32.63
2023-04-22T11:40:30.975Z,32.03
2023-04-22T11:43:00.150Z,32.13
2023-04-22T11:45:27.799Z,31.79
2023-04-22T11:47:54.448Z,32.62
2023-04-22T11:50:23.537Z,32.77
2023-04-22T11:53:04.320Z,32.11
2023-04-22T11:55:33.467Z,31.32
2023-04-22T11:58:30.697Z,31.24
2023-04-22T12:00:59.229Z,31.33
2023-04-22T12:03:27.921Z,31.44
2023-04-22T12:05:58.519Z,31.04
2023-04-22T12:08:36.046Z,31.34
2023-04-22T12:11:06.262Z,31.97
2023-04-22T12:13:40.193Z,32.18
2023-04-22T12:16:28.126Z,30.68
2023-04-22T12:18:55.760Z,32.32
2023-04-22T12:21:26.257Z,31.12
2023-04-22T12:23:54.836Z,31.37
2023-04-22T12:26:26.552Z,32.01
2023-04-22T12:28:54.643Z,32.56
2023-04-22T12:31:20.928Z,31.32
2023-04-22T12:33:47.672Z,32.54
2023-04-22T12:36:14.089Z,31.53
2023-04-22T12:38:40.505Z,32.45
2023-04-22T12:41:07.450Z,32.71
2023-04-22T12:43:34.268Z,32.46
2023-04-22T12:46:00.820Z,31.52
2023-04-22T12:48:27.232Z,30.31
2023-04-22T12:50:53.729Z,31.85
2023-04-22T12:53:21.732Z,31.10
2023-04-22T12:55:48.257Z,31.07
2023-04-22T12:58:14.577Z,31.36
2023-04-22T13:00:40.919Z,31.61
2023-04-22T13:03:07.883Z,30.44
2023-04-22T13:05:34.325Z,31.65
2023-04-22T13:08:07.077Z,31.10
2023-04-22T13:10:34.428Z,30.62
2023-04-22T13:13:13.504Z,31.12
2023-04-22T13:15:43.937Z,30.94
2023-04-22T13:18:10.372Z,30.74
2023-04-22T13:20:36.732Z,29.61
2023-04-22T13:23:03.059Z,29.09
2023-04-22T13:25:29.399Z,29.75
2023-04-22T13:27:55.710Z,29.65
2023-04-22T13:30:22.013Z,29.85
2023-04-22T13:32:48.316Z,29.46
2023-04-22T13:35:14.639Z,29.25
2023-04-22T13:37:40.911Z,30.08
2023-04-22T13:40:07.627Z,29.72
2023-04-22T13:42:34.049Z,29.39
2023-04-22T13:45:00.461Z,29.67
2023-04-22T13:47:26.887Z,29.47
2023-04-22T13:49:53.190Z,28.45
2023-04-22T13:52:19.505Z,29.40
2023-04-22T13:54:45.783Z,28.88
2023-04-22T13:57:12.077Z,28.30
2023-04-22T13:59:38.686Z,28.39
2023-04-22T14:02:05.153Z,28.42
2023-04-22T14:04:31.655Z,29.47
2023-04-22T14:06:58.022Z,29.18
2023-04-22T14:09:24.302Z,28.96
2023-04-22T14:11:50.603Z,28.32
2023-04-22T14:14:16.885Z,28.58
2023-04-22T14:16:43.286Z,28.20
2023-04-22T14:19:09.608Z,28.53
2023-04-22T14:21:35.960Z,28.99
2023-04-22T14:24:02.379Z,29.02
2023-04-22T14:26:28.787Z,28.79
2023-04-22T14:28:55.178Z,28.21
2023-04-22T14:31:21.959Z,28.35
2023-04-22T14:33:48.303Z,28.68
2023-04-22T14:36:14.841Z,28.72
2023-04-22T14:38:41.201Z,28.73
2023-04-22T14:41:07.504Z,28.31
2023-04-22T14:43:33.826Z,28.89
2023-04-22T14:46:00.743Z,28.24
2023-04-22T14:48:27.118Z,28.84
2023-04-22T14:50:53.447Z,29.00
2023-04-22T14:53:20.076Z,28.81
2023-04-22T14:55:46.376Z,29.23
2023-04-22T14:58:12.685Z,28.05
2023-04-22T15:00:39.012Z,27.73
2023-04-22T15:03:05.428Z,27.68
2023-04-22T15:05:31.838Z,27.11
2023-04-22T15:07:58.121Z,27.73
2023-04-22T15:10:25.112Z,28.03
2023-04-22T15:12:51.423Z,27.81
2023-04-22T15:15:17.787Z,27.77
2023-04-22T15:17:44.778Z,27.78
2023-04-22T15:20:12.465Z,27.96
2023-04-22T15:22:39.558Z,27.82
2023-04-22T15:25:06.823Z,27.47
2023-04-22T15:27:33.224Z,28.15
2023-04-22T15:29:59.559Z,28.32
2023-04-22T15:32:25.877Z,28.20
2023-04-22T15:34:52.179Z,28.39
2023-04-22T15:37:18.624Z,28.55
2023-04-22T15:39:44.976Z,28.36
2023-04-22T15:42:11.312Z,28.43
2023-04-22T15:44:37.786Z,28.47
2023-04-22T15:47:04.339Z,28.36
2023-04-22T15:49:30.787Z,28.84
2023-04-22T15:51:57.753Z,28.84
2023-04-22T15:54:24.188Z,28.73
2023-04-22T15:56:50.504Z,29.06
2023-04-22T15:59:16.802Z,29.35
2023-04-22T16:01:45.730Z,29.67
2023-04-22T16:04:13.161Z,30.36
2023-04-22T16:06:39.828Z,30.46
2023-04-22T16:09:06.436Z,30.73
2023-04-22T16:11:32.768Z,29.79
2023-04-22T16:13:59.182Z,30.19
2023-04-22T16:16:26.154Z,30.66
2023-04-22T16:18:52.489Z,30.70
2023-04-22T16:21:18.874Z,31.17
2023-04-22T16:23:45.170Z,31.19
2023-04-22T16:26:11.690Z,31.57
2023-04-22T16:28:38.039Z,31.84
2023-04-22T16:31:04.521Z,31.67
2023-04-22T16:33:30.848Z,31.56
2023-04-22T16:35:57.179Z,31.79
2023-04-22T16:38:23.464Z,31.83
2023-04-22T16:40:49.792Z,31.72
2023-04-22T16:43:16.137Z,32.12
2023-04-22T16:45:42.428Z,32.26
2023-04-22T16:48:08.715Z,32.98
2023-04-22T16:50:35.144Z,33.50
2023-04-22T16:53:01.434Z,33.46
2023-04-22T16:55:27.757Z,33.88
2023-04-22T16:57:54.077Z,34.22
2023-04-22T17:00:20.425Z,34.33
2023-04-22T17:02:46.982Z,34.63
2023-04-22T17:05:13.510Z,34.71
2023-04-22T17:07:39.801Z,34.54
2023-04-22T17:10:06.755Z,34.44
2023-04-22T17:12:33.451Z,34.58
2023-04-22T17:14:59.757Z,34.06
2023-04-22T17:17:26.168Z,34.28
2023-04-22T17:19:52.498Z,34.70
2023-04-22T17:22:18.922Z,34.40
2023-04-22T17:24:45.622Z,34.60
2023-04-22T17:27:11.897Z,34.52
2023-04-22T17:29:38.459Z,34.60
2023-04-22T17:32:04.991Z,34.98
2023-04-22T17:34:31.797Z,35.05
2023-04-22T17:36:58.145Z,34.72
2023-04-22T17:39:24.456Z,34.74
2023-04-22T17:41:50.832Z,34.91
2023-04-22T17:44:17.178Z,34.83
2023-04-22T17:46:43.528Z,35.55
2023-04-22T17:49:09.868Z,35.88
2023-04-22T17:51:36.926Z,35.91
2023-04-22T17:54:03.199Z,36.74
2023-04-22T17:56:29.531Z,36.77
2023-04-22T17:58:55.901Z,37.02
2023-04-22T18:01:22.384Z,37.21
2023-04-22T18:03:48.936Z,37.25
2023-04-22T18:06:15.462Z,37.76
2023-04-22T18:08:41.752Z,37.53
2023-04-22T18:11:08.231Z,37.82
2023-04-22T18:13:34.532Z,38.13
2023-04-22T18:16:00.832Z,38.43
2023-04-22T18:18:27.244Z,38.42
2023-04-22T18:20:53.567Z,39.03
2023-04-22T18:23:19.935Z,39.51
2023-04-22T18:25:46.245Z,40.14
2023-04-22T18:28:12.579Z,40.68
2023-04-22T18:30:39.037Z,40.84
2023-04-22T18:33:05.379Z,41.34
2023-04-22T18:35:32.611Z,41.39
2023-04-22T18:37:58.899Z,42.81
2023-04-22T18:40:25.166Z,42.08
2023-04-22T18:42:51.596Z,42.05
2023-04-22T18:45:17.903Z,42.19
2023-04-22T18:47:44.283Z,42.22
2023-04-22T18:50:10.956Z,42.17
2023-04-22T18:52:37.652Z,42.22
2023-04-22T18:55:04.621Z,42.16
2023-04-22T18:57:30.921Z,42.25
2023-04-22T18:59:57.220Z,42.51
2023-04-22T19:02:23.607Z,42.33
2023-04-22T19:04:49.995Z,42.40
2023-04-22T19:07:16.311Z,42.47
2023-04-22T19:09:42.649Z,42.42
2023-04-22T19:12:08.969Z,42.54
2023-04-22T19:14:35.369Z,42.48
2023-04-22T19:17:01.683Z,42.46
2023-04-22T19:19:28.093Z,42.51
2023-04-22T19:21:54.415Z,42.40
2023-04-22T19:24:20.735Z,42.22
2023-04-22T19:26:47.350Z,42.30
2023-04-22T19:29:13.712Z,42.33
2023-04-22T19:31:40.250Z,42.02
2023-04-22T19:34:06.615Z,42.09
2023-04-22T19:36:32.945Z,41.87
2023-04-22T19:38:59.241Z,41.79
2023-04-22T19:41:25.521Z,42.00
2023-04-22T19:43:51.895Z,42.78
2023-04-22T19:46:18.287Z,44.93
2023-04-22T19:48:44.890Z,46.12
2023-04-22T19:51:11.369Z,46.90
2023-04-22T19:53:38.920Z,47.10
2023-04-22T19:56:05.393Z,47.26
2023-04-22T19:58:32.609Z,47.46
2023-04-22T20:00:59.062Z,47.84
2023-04-22T20:03:25.785Z,47.72
2023-04-22T20:05:52.927Z,48.39
2023-04-22T20:08:19.768Z,48.55
2023-04-22T20:10:48.044Z,48.61
2023-04-22T20:13:14.667Z,48.35
2023-04-22T20:15:41.125Z,48.20
2023-04-22T20:18:07.729Z,48.45
2023-04-22T20:20:34.151Z,48.49
2023-04-22T20:23:01.242Z,48.73
2023-04-22T20:25:27.537Z,49.26
2023-04-22T20:27:54.860Z,47.74
2023-04-22T20:30:21.373Z,48.31
2023-04-22T20:32:47.825Z,48.26
2023-04-22T20:35:14.653Z,48.62
2023-04-22T20:37:41.310Z,49.12
2023-04-22T20:40:08.281Z,49.48
2023-04-22T20:42:35.001Z,49.29
2023-04-22T20:45:01.295Z,49.71
2023-04-22T20:47:27.724Z,50.15
2023-04-22T20:49:54.061Z,49.88
2023-04-22T20:52:20.360Z,49.83
2023-04-22T20:54:47.074Z,49.69
2023-04-22T20:57:13.594Z,49.72
2023-04-22T20:59:39.881Z,49.75
2023-04-22T21:02:08.235Z,49.69
2023-04-22T21:04:34.772Z,49.78
2023-04-22T21:07:01.490Z,50.07
2023-04-22T21:09:28.052Z,50.19
2023-04-22T21:11:54.581Z,50.81
2023-04-22T21:14:21.236Z,50.58
2023-04-22T21:17:09.104Z,51.49
2023-04-22T21:19:37.912Z,51.87
2023-04-22T21:22:05.976Z,51.42
2023-04-22T21:24:33.257Z,51.97
2023-04-22T21:26:59.966Z,51.59
2023-04-22T21:29:26.564Z,51.22
2023-04-22T21:32:07.283Z,51.99
2023-04-22T21:34:34.892Z,52.26
2023-04-22T21:37:01.592Z,53.97
2023-04-22T21:39:29.350Z,52.79
2023-04-22T21:41:55.667Z,53.33
2023-04-22T21:44:21.980Z,53.25
2023-04-22T21:46:48.284Z,52.79
2023-04-22T21:49:14.701Z,52.17
2023-04-22T21:51:41.130Z,52.80
2023-04-22T21:54:07.592Z,52.66
2023-04-22T21:56:34.335Z,53.00
2023-04-22T21:59:00.626Z,53.54
2023-04-22T22:01:26.951Z,53.91
2023-04-22T22:03:53.415Z,53.12
2023-04-22T22:06:20.425Z,53.10
2023-04-22T22:08:46.776Z,53.68
2023-04-22T22:11:27.503Z,53.79
2023-04-22T22:13:56.646Z,54.21
2023-04-22T22:16:23.257Z,55.48
2023-04-22T22:18:49.773Z,55.18
2023-04-22T22:21:16.062Z,54.89
2023-04-22T22:23:42.450Z,54.36
2023-04-22T22:26:08.891Z,54.51
2023-04-22T22:28:35.180Z,55.04
2023-04-22T22:31:01.506Z,54.81
2023-04-22T22:33:28.916Z,54.33
2023-04-22T22:35:55.211Z,54.41
2023-04-22T22:38:21.529Z,54.11
2023-04-22T22:40:48.281Z,54.58
2023-04-22T22:43:14.642Z,55.05
2023-04-22T22:45:41.020Z,55.06
2023-04-22T22:48:07.618Z,55.05
2023-04-22T22:50:33.943Z,56.37
2023-04-22T22:53:00.230Z,56.54
2023-04-22T22:55:26.717Z,57.39
2023-04-22T22:57:52.985Z,56.84
2023-04-22T23:00:19.314Z,57.01
2023-04-22T23:02:45.829Z,57.69
2023-04-22T23:05:12.204Z,57.51
2023-04-22T23:07:38.578Z,58.01
2023-04-22T23:10:05.353Z,58.45
2023-04-22T23:12:31.683Z,59.20
2023-04-22T23:14:58.077Z,59.58
2023-04-22T23:17:24.510Z,59.45
2023-04-22T23:19:52.021Z,59.52
2023-04-22T23:22:18.866Z,59.24
2023-04-22T23:24:45.471Z,58.86
2023-04-22T23:27:11.996Z,58.85
2023-04-22T23:29:38.703Z,58.33
2023-04-22T23:32:07.648Z,58.52
2023-04-22T23:34:35.233Z,58.55
2023-04-22T23:37:03.978Z,59.34
2023-04-22T23:39:30.247Z,59.77
2023-04-22T23:41:56.663Z,60.40
2023-04-22T23:44:22.957Z,60.28
2023-04-22T23:46:49.356Z,60.36
2023-04-22T23:49:15.715Z,60.39
2023-04-22T23:51:42.049Z,61.15
2023-04-22T23:54:08.667Z,60.53
2023-04-22T23:56:35.252Z,61.15
2023-04-22T23:59:01.773Z,60.83
